createdAt,value
2023-02-20T00:01:07.415Z,1.10
2023-02-20T00:03:35.280Z,1.48
2023-02-20T00:06:04.535Z,1.27
2023-02-20T00:08:32.408Z,0.98
2023-02-20T00:11:00.254Z,1.02
2023-02-20T00:13:28.124Z,1.33
2023-02-20T00:15:56.081Z,1.17
2023-02-20T00:18:23.936Z,1.10
2023-02-20T00:20:51.801Z,1.05
2023-02-20T00:23:21.049Z,1.23
2023-02-20T00:25:48.898Z,0.85
2023-02-20T00:28:16.780Z,0.65
2023-02-20T00:30:44.651Z,0.93
2023-02-20T00:33:14.894Z,1.30
2023-02-20T00:35:42.755Z,1.80
2023-02-20T00:38:10.607Z,1.70
2023-02-20T00:40:39.863Z,1.08
2023-02-20T00:43:07.689Z,1.52
2023-02-20T00:45:36.339Z,1.60
2023-02-20T00:48:04.512Z,1.70
2023-02-20T00:50:32.360Z,1.27
2023-02-20T00:53:00.250Z,1.17
2023-02-20T00:55:28.153Z,1.65
2023-02-20T00:57:57.496Z,2.10
2023-02-20T01:00:27.539Z,1.50
2023-02-20T01:02:55.602Z,1.58
2023-02-20T01:05:24.531Z,0.98
2023-02-20T01:07:54.337Z,2.15
2023-02-20T01:10:22.458Z,1.38
2023-02-20T01:12:50.290Z,1.90
2023-02-20T01:15:19.582Z,1.33
2023-02-20T01:17:47.838Z,1.98
2023-02-20T01:20:16.051Z,1.92
2023-02-20T01:22:44.014Z,1.65
2023-02-20T01:25:12.283Z,2.08
2023-02-20T01:27:40.273Z,1.75
2023-02-20T01:30:09.858Z,2.00
2023-02-20T01:32:39.230Z,1.10
2023-02-20T01:35:07.895Z,2.17
2023-02-20T01:37:35.954Z,1.83
2023-02-20T01:40:04.887Z,2.08
2023-02-20T01:42:35.081Z,2.28
2023-02-20T01:45:31.672Z,2.08
2023-02-20T01:48:00.967Z,1.83
2023-02-20T01:50:31.975Z,1.77
2023-02-20T01:53:02.940Z,1.77
2023-02-20T01:55:35.638Z,2.25
2023-02-20T01:58:07.322Z,2.40
2023-02-20T02:00:35.679Z,1.42
2023-02-20T02:03:08.064Z,1.20
2023-02-20T02:05:36.435Z,2.13
2023-02-20T02:08:06.019Z,2.08
2023-02-20T02:10:38.887Z,1.70
2023-02-20T02:13:07.936Z,1.63
2023-02-20T02:16:52.349Z,1.10
2023-02-20T02:19:39.295Z,1.85
2023-02-20T02:22:30.833Z,1.45
2023-02-20T02:25:13.806Z,1.58
2023-02-20T02:28:09.489Z,1.75
2023-02-20T02:31:08.081Z,1.98
2023-02-20T02:34:09.338Z,1.10
2023-02-20T02:36:42.959Z,1.30
2023-02-20T02:39:18.401Z,2.00
2023-02-20T02:41:52.728Z,2.30
2023-02-20T02:44:26.106Z,2.25
2023-02-20T02:46:58.556Z,1.50
2023-02-20T02:49:31.351Z,1.85
2023-02-20T02:52:01.703Z,1.55
2023-02-20T02:54:29.988Z,1.13
2023-02-20T02:57:20.567Z,2.08
2023-02-20T02:59:49.172Z,2.13
2023-02-20T03:02:19.346Z,1.65
2023-02-20T03:04:50.324Z,1.30
2023-02-20T03:07:20.823Z,2.83
2023-02-20T03:09:52.123Z,2.08
2023-02-20T03:12:21.433Z,1.77
2023-02-20T03:15:13.023Z,2.22
2023-02-20T03:17:43.636Z,2.95
2023-02-20T03:20:15.230Z,1.80
2023-02-20T03:22:48.292Z,2.70
2023-02-20T03:25:19.327Z,2.35
2023-02-20T03:27:50.500Z,2.15
2023-02-20T03:30:22.093Z,2.55
2023-02-20T03:33:10.503Z,2.95
2023-02-20T03:35:59.176Z,2.72
2023-02-20T03:38:47.927Z,2.97
2023-02-20T03:41:34.383Z,2.30
2023-02-20T03:44:05.828Z,2.80
2023-02-20T03:46:35.032Z,2.55
2023-02-20T03:49:05.730Z,2.90
2023-02-20T03:51:32.743Z,2.65
2023-02-20T03:54:07.187Z,3.40
2023-02-20T03:56:38.607Z,3.00
2023-02-20T03:59:11.718Z,3.58
2023-02-20T04:01:40.629Z,3.25
2023-02-20T04:04:11.912Z,3.55
2023-02-20T04:06:41.454Z,2.10
2023-02-20T04:09:13.868Z,2.50
2023-02-20T04:11:44.969Z,2.97
2023-02-20T04:14:14.138Z,3.42
2023-02-20T04:16:46.580Z,3.08
2023-02-20T04:19:14.903Z,3.42
2023-02-20T04:21:46.754Z,3.85
2023-02-20T04:24:20.324Z,2.58
2023-02-20T04:26:49.157Z,2.38
2023-02-20T04:29:17.181Z,3.40
2023-02-20T04:31:45.007Z,2.80
2023-02-20T04:34:13.474Z,3.33
2023-02-20T04:36:42.119Z,3.40
2023-02-20T04:39:10.032Z,3.28
2023-02-20T04:41:39.728Z,3.50
2023-02-20T04:44:25.701Z,4.22
2023-02-20T04:46:56.342Z,3.53
2023-02-20T04:49:24.486Z,3.33
2023-02-20T04:51:55.658Z,3.60
2023-02-20T04:54:23.705Z,2.85
2023-02-20T04:56:53.423Z,3.13
2023-02-20T04:59:22.284Z,3.22
2023-02-20T05:01:52.171Z,3.63
2023-02-20T05:04:21.183Z,2.45
2023-02-20T05:06:51.309Z,4.03
2023-02-20T05:09:19.447Z,4.30
2023-02-20T05:11:47.310Z,2.60
2023-02-20T05:14:17.137Z,4.03
2023-02-20T05:16:45.839Z,2.78
2023-02-20T05:19:14.270Z,2.47
2023-02-20T05:22:01.509Z,4.30
2023-02-20T05:24:29.886Z,2.78
2023-02-20T05:26:58.105Z,3.17
2023-02-20T05:29:27.704Z,3.65
2023-02-20T05:31:55.794Z,3.92
2023-02-20T05:34:25.786Z,4.25
2023-02-20T05:36:54.629Z,3.22
2023-02-20T05:39:22.510Z,4.20
2023-02-20T05:41:50.321Z,3.58
2023-02-20T05:44:18.090Z,4.85
2023-02-20T05:46:47.418Z,4.53
2023-02-20T05:49:15.147Z,2.78
2023-02-20T05:51:42.865Z,3.75
2023-02-20T05:54:13.924Z,4.78
2023-02-20T05:56:42.783Z,3.38
2023-02-20T05:59:10.833Z,4.22
2023-02-20T06:01:38.769Z,4.38
2023-02-20T06:04:08.102Z,4.22
2023-02-20T06:06:37.168Z,3.92
2023-02-20T06:09:07.884Z,4.55
2023-02-20T06:11:35.888Z,5.00
2023-02-20T06:14:04.399Z,5.20
2023-02-20T06:16:32.239Z,3.95
2023-02-20T06:19:00.943Z,5.55
2023-02-20T06:21:30.525Z,5.80
2023-02-20T06:23:58.346Z,5.43
2023-02-20T06:26:26.175Z,4.47
2023-02-20T06:28:54.572Z,6.28
2023-02-20T06:31:23.822Z,4.60
2023-02-20T06:33:51.835Z,4.80
2023-02-20T06:36:21.906Z,4.85
2023-02-20T06:38:51.139Z,5.97
2023-02-20T06:41:19.046Z,6.20
2023-02-20T06:43:47.063Z,4.82
2023-02-20T06:46:15.062Z,5.70
2023-02-20T06:48:46.808Z,6.13
2023-02-20T06:51:15.007Z,5.65
2023-02-20T06:53:43.426Z,6.93
2023-02-20T06:56:18.580Z,6.22
2023-02-20T06:58:47.399Z,4.75
2023-02-20T07:01:15.556Z,7.30
2023-02-20T07:03:43.664Z,7.30
2023-02-20T07:06:11.926Z,6.18
2023-02-20T07:08:39.925Z,5.50
2023-02-20T07:11:07.826Z,6.40
2023-02-20T07:13:37.126Z,5.70
2023-02-20T07:16:05.291Z,5.13
2023-02-20T07:18:33.194Z,6.93
2023-02-20T07:21:01.068Z,5.00
2023-02-20T07:23:28.994Z,5.95
2023-02-20T07:25:57.032Z,8.38
2023-02-20T07:28:25.264Z,7.05
2023-02-20T07:30:54.468Z,8.63
2023-02-20T07:33:22.295Z,6.68
2023-02-20T07:35:50.199Z,7.57
2023-02-20T07:38:18.000Z,6.95
2023-02-20T07:40:45.798Z,5.82
2023-02-20T07:43:13.665Z,6.28
2023-02-20T07:45:43.176Z,6.65
2023-02-20T07:48:12.352Z,6.97
2023-02-20T07:50:40.195Z,6.82
2023-02-20T07:53:08.089Z,4.78
2023-02-20T07:55:35.857Z,5.25
2023-02-20T07:58:03.961Z,7.22
2023-02-20T08:00:31.832Z,6.55
2023-02-20T08:02:59.946Z,6.28
2023-02-20T08:05:40.099Z,5.93
2023-02-20T08:08:11.828Z,6.43
2023-02-20T08:10:39.799Z,6.55
2023-02-20T08:13:07.701Z,5.28
2023-02-20T08:15:35.560Z,5.28
2023-02-20T08:18:06.038Z,5.70
2023-02-20T08:20:37.123Z,6.65
2023-02-20T08:23:05.754Z,7.63
2023-02-20T08:25:33.691Z,6.13
2023-02-20T08:28:01.554Z,7.40
2023-02-20T08:30:29.890Z,6.72
2023-02-20T08:32:57.835Z,5.30
2023-02-20T08:35:25.816Z,9.02
2023-02-20T08:37:55.075Z,5.30
2023-02-20T08:40:23.147Z,5.55
2023-02-20T08:42:51.038Z,5.78
2023-02-20T08:45:18.974Z,6.38
2023-02-20T08:47:48.583Z,7.55
2023-02-20T08:50:16.583Z,5.70
2023-02-20T08:52:45.899Z,6.72
2023-02-20T08:55:15.143Z,7.32
2023-02-20T08:57:44.401Z,5.90
2023-02-20T09:00:14.639Z,5.72
2023-02-20T09:02:42.722Z,7.22
2023-02-20T09:05:10.890Z,6.03
2023-02-20T09:07:38.759Z,7.75
2023-02-20T09:10:07.207Z,6.03
2023-02-20T09:12:36.588Z,7.07
2023-02-20T09:15:04.774Z,7.18
2023-02-20T09:17:32.669Z,5.25
2023-02-20T09:20:00.521Z,6.70
2023-02-20T09:22:28.428Z,5.32
2023-02-20T09:24:56.279Z,6.55
2023-02-20T09:27:24.183Z,7.13
2023-02-20T09:29:53.364Z,6.53
2023-02-20T09:32:21.236Z,8.60
2023-02-20T09:34:49.093Z,6.63
2023-02-20T09:37:16.898Z,7.53
2023-02-20T09:39:44.983Z,7.22
2023-02-20T09:42:23.776Z,8.38
2023-02-20T09:44:59.726Z,7.57
2023-02-20T09:47:43.398Z,8.10
2023-02-20T09:50:14.926Z,8.35
2023-02-20T09:52:46.269Z,7.90
2023-02-20T09:55:18.044Z,8.45
2023-02-20T09:57:49.785Z,8.05
2023-02-20T10:00:23.457Z,7.28
2023-02-20T10:02:55.829Z,7.38
2023-02-20T10:05:26.182Z,8.02
2023-02-20T10:07:54.497Z,8.00
2023-02-20T10:10:24.791Z,7.90
2023-02-20T10:13:01.806Z,8.77
2023-02-20T10:15:35.529Z,9.25
2023-02-20T10:18:11.265Z,10.00
2023-02-20T10:20:42.685Z,8.70
2023-02-20T10:23:15.608Z,12.05
2023-02-20T10:25:46.034Z,7.82
2023-02-20T10:28:16.489Z,9.00
2023-02-20T10:30:47.968Z,9.73
2023-02-20T10:33:22.637Z,8.55
2023-02-20T10:35:53.114Z,9.07
2023-02-20T10:38:23.870Z,8.75
2023-02-20T10:40:58.597Z,7.00
2023-02-20T10:43:33.936Z,6.28
2023-02-20T10:46:11.773Z,8.07
2023-02-20T10:48:42.787Z,8.02
2023-02-20T10:51:13.509Z,8.70
2023-02-20T10:53:46.098Z,9.15
2023-02-20T10:56:17.098Z,9.07
2023-02-20T10:58:51.419Z,8.57
2023-02-20T11:01:23.297Z,6.68
2023-02-20T11:03:57.301Z,7.22
2023-02-20T11:06:34.047Z,5.60
2023-02-20T11:09:02.003Z,6.05
2023-02-20T11:11:33.481Z,6.03
2023-02-20T11:14:02.262Z,6.28
2023-02-20T11:16:33.991Z,5.50
2023-02-20T11:19:06.151Z,5.20
2023-02-20T11:21:35.307Z,4.22
2023-02-20T11:24:19.217Z,4.20
2023-02-20T11:26:47.282Z,4.82
2023-02-20T11:29:16.879Z,4.35
2023-02-20T11:31:47.808Z,3.67
2023-02-20T11:34:19.018Z,3.15
2023-02-20T11:36:48.452Z,3.83
2023-02-20T11:39:22.462Z,3.00
2023-02-20T11:41:52.080Z,2.60
2023-02-20T11:44:26.746Z,3.03
2023-02-20T11:47:18.152Z,3.28
2023-02-20T11:49:46.422Z,2.67
2023-02-20T11:52:17.884Z,2.95
2023-02-20T11:54:47.125Z,3.33
2023-02-20T11:57:22.786Z,4.72
2023-02-20T11:59:51.648Z,3.33
2023-02-20T12:02:28.649Z,3.78
2023-02-20T12:05:09.290Z,3.65
2023-02-20T12:07:39.730Z,3.35
2023-02-20T12:10:20.754Z,2.38
2023-02-20T12:12:48.762Z,2.63
2023-02-20T12:15:18.292Z,3.72
2023-02-20T12:18:08.752Z,3.60
2023-02-20T12:20:37.710Z,3.13
2023-02-20T12:23:12.474Z,4.10
2023-02-20T12:25:50.255Z,2.67
2023-02-20T12:28:22.459Z,3.28
2023-02-20T12:31:02.087Z,2.42
2023-02-20T12:33:48.496Z,3.80
2023-02-20T12:36:26.604Z,2.35
2023-02-20T12:38:59.332Z,3.10
2023-02-20T12:41:32.843Z,3.15
2023-02-20T12:44:13.784Z,2.90
2023-02-20T12:46:52.756Z,3.42
2023-02-20T12:49:43.279Z,2.47
2023-02-20T12:52:23.632Z,4.07
2023-02-20T12:54:55.180Z,2.53
2023-02-20T12:57:29.323Z,2.88
2023-02-20T13:00:00.496Z,3.10
2023-02-20T13:02:41.435Z,2.80
2023-02-20T13:05:13.847Z,3.08
2023-02-20T13:07:46.279Z,3.20
2023-02-20T13:10:16.793Z,3.55
2023-02-20T13:12:44.738Z,3.38
2023-02-20T13:15:28.769Z,4.20
2023-02-20T13:18:00.010Z,2.13
2023-02-20T13:20:33.414Z,3.08
2023-02-20T13:23:02.870Z,3.28
2023-02-20T13:25:44.585Z,3.42
2023-02-20T13:28:24.353Z,2.75
2023-02-20T13:31:09.037Z,3.10
2023-02-20T13:33:37.470Z,2.78
2023-02-20T13:36:07.596Z,3.10
2023-02-20T13:38:35.524Z,3.72
2023-02-20T13:41:08.485Z,4.18
2023-02-20T13:46:15.005Z,2.90
2023-02-20T13:48:45.187Z,4.65
2023-02-20T13:51:34.733Z,3.92
2023-02-20T13:54:24.740Z,4.20
2023-02-20T13:56:59.309Z,4.30
2023-02-20T13:59:28.387Z,3.65
2023-02-20T14:01:57.961Z,3.28
2023-02-20T14:04:26.266Z,3.97
2023-02-20T14:06:58.423Z,3.33
2023-02-20T14:09:31.458Z,3.83
2023-02-20T14:12:08.759Z,4.13
2023-02-20T14:14:39.818Z,2.95
2023-02-20T14:17:09.838Z,3.55
2023-02-20T14:19:41.515Z,4.00
2023-02-20T14:22:23.999Z,3.47
2023-02-20T14:25:20.205Z,3.55
2023-02-20T14:27:50.350Z,3.55
2023-02-20T14:30:20.906Z,3.65
2023-02-20T14:32:50.267Z,3.67
2023-02-20T14:35:50.772Z,3.35
2023-02-20T14:38:29.516Z,3.50
2023-02-20T14:40:59.646Z,3.80
2023-02-20T14:43:29.449Z,1.98
2023-02-20T14:46:02.836Z,4.40
2023-02-20T14:48:32.186Z,3.70
2023-02-20T14:51:14.769Z,2.13
2023-02-20T14:53:44.606Z,3.17
2023-02-20T14:56:18.248Z,3.83
2023-02-20T14:58:46.428Z,4.40
2023-02-20T15:01:37.760Z,2.35
2023-02-20T15:04:10.832Z,2.38
2023-02-20T15:06:40.171Z,3.55
2023-02-20T15:09:21.513Z,3.38
2023-02-20T15:11:52.487Z,3.67
2023-02-20T15:14:22.797Z,5.32
2023-02-20T15:17:07.309Z,4.30
2023-02-20T15:19:39.374Z,3.15
2023-02-20T15:22:12.986Z,3.53
2023-02-20T15:24:42.197Z,2.42
2023-02-20T15:27:15.587Z,3.20
2023-02-20T15:29:44.756Z,3.88
2023-02-20T15:32:19.083Z,4.13
2023-02-20T15:34:51.820Z,2.67
2023-02-20T15:37:30.067Z,3.90
2023-02-20T15:40:21.084Z,4.25
2023-02-20T15:42:50.135Z,2.07
2023-02-20T15:45:18.112Z,2.67
2023-02-20T15:47:46.162Z,2.90
2023-02-20T15:50:14.091Z,2.38
2023-02-20T15:52:42.098Z,2.95
2023-02-20T15:55:16.398Z,3.55
2023-02-20T15:57:45.980Z,2.85
2023-02-20T16:00:20.995Z,3.47
2023-02-20T16:02:51.470Z,2.53
2023-02-20T16:05:19.485Z,1.67
2023-02-20T16:07:47.532Z,2.33
2023-02-20T16:10:18.926Z,2.75
2023-02-20T16:12:48.025Z,2.53
2023-02-20T16:15:17.571Z,3.30
2023-02-20T16:17:45.415Z,3.22
2023-02-20T16:20:18.337Z,2.75
2023-02-20T16:22:46.385Z,2.80
2023-02-20T16:25:18.209Z,3.42
2023-02-20T16:27:47.708Z,2.55
2023-02-20T16:30:32.323Z,3.20
2023-02-20T16:33:02.010Z,2.67
2023-02-20T16:35:30.027Z,3.33
2023-02-20T16:37:57.909Z,2.90
2023-02-20T16:40:27.090Z,2.70
2023-02-20T16:42:55.161Z,2.97
2023-02-20T16:45:23.241Z,3.70
2023-02-20T16:47:52.954Z,2.80
2023-02-20T16:50:23.513Z,2.67
2023-02-20T16:52:52.469Z,3.42
2023-02-20T16:55:22.531Z,2.80
2023-02-20T16:57:52.154Z,3.42
2023-02-20T17:00:22.124Z,2.30
2023-02-20T17:02:50.012Z,2.75
2023-02-20T17:05:20.146Z,3.45
2023-02-20T17:07:48.133Z,2.38
2023-02-20T17:10:16.524Z,3.38
2023-02-20T17:12:44.698Z,3.53
2023-02-20T17:15:15.756Z,2.78
2023-02-20T17:17:43.694Z,3.33
2023-02-20T17:20:17.435Z,3.45
2023-02-20T17:22:50.534Z,2.90
2023-02-20T17:25:25.313Z,2.90
2023-02-20T17:27:53.447Z,2.70
2023-02-20T17:30:24.776Z,3.67
2023-02-20T17:32:52.757Z,2.90
2023-02-20T17:35:20.586Z,2.60
2023-02-20T17:37:49.533Z,2.97
2023-02-20T17:40:18.184Z,3.42
2023-02-20T17:42:46.138Z,3.72
2023-02-20T17:45:15.499Z,2.78
2023-02-20T17:47:45.022Z,3.47
2023-02-20T17:50:12.891Z,3.05
2023-02-20T17:52:40.740Z,2.47
2023-02-20T17:55:09.212Z,2.58
2023-02-20T17:57:37.055Z,2.08
2023-02-20T18:00:07.586Z,2.97
2023-02-20T18:02:35.463Z,2.92
2023-02-20T18:05:04.910Z,2.90
2023-02-20T18:07:33.016Z,2.65
2023-02-20T18:10:02.301Z,2.80
2023-02-20T18:12:30.134Z,3.08
2023-02-20T18:14:58.046Z,2.58
2023-02-20T18:17:25.844Z,2.70
2023-02-20T18:19:53.677Z,2.67
2023-02-20T18:22:22.909Z,2.28
2023-02-20T18:24:50.719Z,2.42
2023-02-20T18:27:18.593Z,1.90
2023-02-20T18:29:46.456Z,1.80
2023-02-20T18:32:14.426Z,2.53
2023-02-20T18:34:42.286Z,2.08
2023-02-20T18:37:10.363Z,2.40
2023-02-20T18:39:40.217Z,2.45
2023-02-20T18:42:08.155Z,2.22
2023-02-20T18:44:36.025Z,2.22
2023-02-20T18:47:04.402Z,2.28
2023-02-20T18:49:32.388Z,2.67
2023-02-20T18:52:00.304Z,1.40
2023-02-20T18:54:32.906Z,1.75
2023-02-20T18:57:03.432Z,1.55
2023-02-20T18:59:31.940Z,1.77
2023-02-20T19:02:05.899Z,1.80
2023-02-20T19:04:34.175Z,1.20
2023-02-20T19:07:04.176Z,1.88
2023-02-20T19:09:34.315Z,1.45
2023-02-20T19:12:06.528Z,0.90
2023-02-20T19:14:34.950Z,0.60
2023-02-20T19:17:03.969Z,0.68
2023-02-20T19:19:34.429Z,0.85
2023-02-20T19:22:02.490Z,0.60
2023-02-20T19:24:30.360Z,1.10
2023-02-20T19:26:58.328Z,0.60
2023-02-20T19:29:27.617Z,0.63
2023-02-20T19:31:55.684Z,0.70
2023-02-20T19:34:23.755Z,1.00
2023-02-20T19:36:51.548Z,0.80
2023-02-20T19:39:19.458Z,0.85
2023-02-20T19:41:49.807Z,0.80
2023-02-20T19:44:17.916Z,1.35
2023-02-20T19:46:47.223Z,1.08
2023-02-20T19:49:15.210Z,0.70
2023-02-20T19:51:47.862Z,1.38
2023-02-20T19:54:16.718Z,1.20
2023-02-20T19:56:48.788Z,0.90
2023-02-20T19:59:16.941Z,1.05
2023-02-20T20:01:50.520Z,0.70
2023-02-20T20:04:18.908Z,0.88
2023-02-20T20:06:46.835Z,0.75
2023-02-20T20:09:23.485Z,0.98
2023-02-20T20:11:58.307Z,0.57
2023-02-20T20:14:26.766Z,1.23
2023-02-20T20:16:56.313Z,0.82
2023-02-20T20:19:24.358Z,1.27
2023-02-20T20:21:52.456Z,0.80
2023-02-20T20:24:20.370Z,0.95
2023-02-20T20:26:48.361Z,0.77
2023-02-20T20:29:16.318Z,0.98
2023-02-20T20:31:44.326Z,1.00
2023-02-20T20:34:13.589Z,1.00
2023-02-20T20:36:41.461Z,1.10
2023-02-20T20:39:09.313Z,1.60
2023-02-20T20:41:44.892Z,1.00
2023-02-20T20:44:14.033Z,1.17
2023-02-20T20:46:42.099Z,0.88
2023-02-20T20:49:13.208Z,0.80
2023-02-20T20:51:43.006Z,1.48
2023-02-20T20:54:11.007Z,0.90
2023-02-20T20:56:45.384Z,0.80
2023-02-20T20:59:13.427Z,1.08
2023-02-20T21:01:42.205Z,0.90
2023-02-20T21:04:10.214Z,1.00
2023-02-20T21:06:39.430Z,0.70
2023-02-20T21:09:07.246Z,0.75
2023-02-20T21:11:35.606Z,1.63
2023-02-20T21:14:03.514Z,0.88
2023-02-20T21:16:31.427Z,1.00
2023-02-20T21:18:59.299Z,1.13
2023-02-20T21:21:27.795Z,0.77
2023-02-20T21:23:57.028Z,0.80
2023-02-20T21:26:26.564Z,1.27
2023-02-20T21:28:55.396Z,0.90
2023-02-20T21:31:23.549Z,1.00
2023-02-20T21:33:52.101Z,1.20
2023-02-20T21:36:20.569Z,0.90
2023-02-20T21:38:48.523Z,1.00
2023-02-20T21:41:34.727Z,0.80
2023-02-20T21:44:20.052Z,0.90
2023-02-20T21:46:49.996Z,0.90
2023-02-20T21:49:17.879Z,1.30
2023-02-20T21:51:45.747Z,1.13
2023-02-20T21:54:13.964Z,1.42
2023-02-20T21:56:43.424Z,1.60
2023-02-20T21:59:10.177Z,1.33
2023-02-20T22:01:39.093Z,0.90
2023-02-20T22:04:07.153Z,1.30
2023-02-20T22:06:34.092Z,1.02
2023-02-20T22:09:19.772Z,1.08
2023-02-20T22:12:06.562Z,1.02
2023-02-20T22:14:52.189Z,0.75
2023-02-20T22:17:37.414Z,1.38
2023-02-20T22:20:23.846Z,1.52
2023-02-20T22:23:09.238Z,1.45
2023-02-20T22:25:54.800Z,1.27
2023-02-20T22:28:41.553Z,1.30
2023-02-20T22:31:26.822Z,1.98
2023-02-20T22:34:12.198Z,0.60
2023-02-20T22:36:57.426Z,1.27
2023-02-20T22:39:42.690Z,1.23
2023-02-20T22:42:34.628Z,1.00
2023-02-20T22:45:22.617Z,1.05
2023-02-20T22:48:07.905Z,1.20
2023-02-20T22:50:53.181Z,0.93
2023-02-20T22:53:38.586Z,1.00
2023-02-20T22:56:24.504Z,0.65
2023-02-20T22:59:10.202Z,1.08
2023-02-20T23:01:56.821Z,0.90
2023-02-20T23:04:42.226Z,0.68
2023-02-20T23:07:27.671Z,1.70
2023-02-20T23:10:13.053Z,0.70
2023-02-20T23:12:58.488Z,1.38
2023-02-20T23:15:43.627Z,1.02
2023-02-20T23:18:30.916Z,1.10
2023-02-20T23:21:16.409Z,0.70
2023-02-20T23:24:01.974Z,0.60
2023-02-20T23:26:47.312Z,0.77
2023-02-20T23:29:32.599Z,1.50
2023-02-20T23:32:17.890Z,0.38
2023-02-20T23:35:04.474Z,0.90
2023-02-20T23:37:49.872Z,0.60
2023-02-20T23:40:37.099Z,1.02
2023-02-20T23:43:23.136Z,0.47
2023-02-20T23:46:08.540Z,0.50
2023-02-20T23:48:54.524Z,0.60
2023-02-20T23:51:41.678Z,1.10
2023-02-20T23:54:27.574Z,0.90
2023-02-20T23:57:13.014Z,0.45
2023-02-20T23:59:58.299Z,0.60
